sensor_id;sensor_type;location;lat;lon;timestamp;P1;durP1;ratioP1;P2;durP2;ratioP2
23290;SDS011;11814;44.686;10.842;2023-04-24T00:01:47;9.07;;;7.00;;
23290;SDS011;11814;44.686;10.842;2023-04-24T00:04:13;13.65;;;7.50;;
23290;SDS011;11814;44.686;10.842;2023-04-24T00:06:41;10.57;;;7.68;;
23290;SDS011;11814;44.686;10.842;2023-04-24T00:09:08;12.45;;;8.27;;
23290;SDS011;11814;44.686;10.842;2023-04-24T00:11:35;12.07;;;8.45;;
23290;SDS011;11814;44.686;10.842;2023-04-24T00:14:01;10.57;;;8.07;;
23290;SDS011;11814;44.686;10.842;2023-04-24T00:16:27;10.65;;;8.02;;
23290;SDS011;11814;44.686;10.842;2023-04-24T00:18:53;9.75;;;7.10;;
23290;SDS011;11814;44.686;10.842;2023-04-24T00:21:19;11.40;;;6.93;;
23290;SDS011;11814;44.686;10.842;2023-04-24T00:23:46;10.00;;;6.93;;
23290;SDS011;11814;44.686;10.842;2023-04-24T00:26:13;12.93;;;6.90;;
23290;SDS011;11814;44.686;10.842;2023-04-24T00:28:39;10.05;;;6.78;;
23290;SDS011;11814;44.686;10.842;2023-04-24T00:31:04;10.38;;;6.80;;
23290;SDS011;11814;44.686;10.842;2023-04-24T00:33:30;13.68;;;6.75;;
23290;SDS011;11814;44.686;10.842;2023-04-24T00:35:56;11.38;;;7.22;;
23290;SDS011;11814;44.686;10.842;2023-04-24T00:38:21;10.85;;;6.97;;
23290;SDS011;11814;44.686;10.842;2023-04-24T00:40:48;11.32;;;7.53;;
23290;SDS011;11814;44.686;10.842;2023-04-24T00:43:15;9.13;;;7.35;;
23290;SDS011;11814;44.686;10.842;2023-04-24T00:45:41;10.23;;;8.25;;
23290;SDS011;11814;44.686;10.842;2023-04-24T00:48:07;12.63;;;8.35;;
23290;SDS011;11814;44.686;10.842;2023-04-24T00:50:35;11.32;;;8.10;;
23290;SDS011;11814;44.686;10.842;2023-04-24T00:53:01;12.80;;;8.70;;
23290;SDS011;11814;44.686;10.842;2023-04-24T00:55:27;14.65;;;8.88;;
23290;SDS011;11814;44.686;10.842;2023-04-24T00:57:53;11.80;;;9.25;;
23290;SDS011;11814;44.686;10.842;2023-04-24T01:00:19;12.73;;;9.95;;
23290;SDS011;11814;44.686;10.842;2023-04-24T01:02:46;16.42;;;9.90;;
23290;SDS011;11814;44.686;10.842;2023-04-24T01:05:13;13.35;;;10.52;;
23290;SDS011;11814;44.686;10.842;2023-04-24T01:07:40;13.38;;;10.38;;
23290;SDS011;11814;44.686;10.842;2023-04-24T01:10:10;18.40;;;11.70;;
23290;SDS011;11814;44.686;10.842;2023-04-24T01:12:37;15.63;;;11.13;;
23290;SDS011;11814;44.686;10.842;2023-04-24T01:15:03;16.80;;;11.35;;
23290;SDS011;11814;44.686;10.842;2023-04-24T01:17:31;18.23;;;12.30;;
23290;SDS011;11814;44.686;10.842;2023-04-24T01:19:57;16.95;;;12.13;;
23290;SDS011;11814;44.686;10.842;2023-04-24T01:22:25;17.98;;;13.07;;
23290;SDS011;11814;44.686;10.842;2023-04-24T01:24:51;18.02;;;13.75;;
23290;SDS011;11814;44.686;10.842;2023-04-24T01:27:18;17.48;;;13.98;;
23290;SDS011;11814;44.686;10.842;2023-04-24T01:29:45;18.08;;;14.35;;
23290;SDS011;11814;44.686;10.842;2023-04-24T01:32:12;20.55;;;14.93;;
23290;SDS011;11814;44.686;10.842;2023-04-24T01:34:38;20.77;;;14.80;;
23290;SDS011;11814;44.686;10.842;2023-04-24T01:37:05;18.63;;;15.00;;
23290;SDS011;11814;44.686;10.842;2023-04-24T01:39:30;21.27;;;15.32;;
23290;SDS011;11814;44.686;10.842;2023-04-24T01:41:58;20.63;;;15.40;;
23290;SDS011;11814;44.686;10.842;2023-04-24T01:44:24;19.40;;;16.10;;
23290;SDS011;11814;44.686;10.842;2023-04-24T01:46:51;21.48;;;15.73;;
23290;SDS011;11814;44.686;10.842;2023-04-24T01:49:19;19.90;;;15.38;;
23290;SDS011;11814;44.686;10.842;2023-04-24T01:51:45;19.45;;;16.45;;
23290;SDS011;11814;44.686;10.842;2023-04-24T01:54:11;20.73;;;16.42;;
23290;SDS011;11814;44.686;10.842;2023-04-24T01:56:37;22.33;;;17.10;;
23290;SDS011;11814;44.686;10.842;2023-04-24T01:59:07;26.33;;;16.25;;
23290;SDS011;11814;44.686;10.842;2023-04-24T02:01:36;21.17;;;17.00;;
23290;SDS011;11814;44.686;10.842;2023-04-24T02:04:03;24.50;;;17.83;;
23290;SDS011;11814;44.686;10.842;2023-04-24T02:06:32;22.48;;;17.40;;
23290;SDS011;11814;44.686;10.842;2023-04-24T02:08:58;24.45;;;16.90;;
23290;SDS011;11814;44.686;10.842;2023-04-24T02:11:24;22.92;;;17.42;;
23290;SDS011;11814;44.686;10.842;2023-04-24T02:13:50;21.98;;;17.65;;
23290;SDS011;11814;44.686;10.842;2023-04-24T02:16:16;21.23;;;16.00;;
23290;SDS011;11814;44.686;10.842;2023-04-24T02:18:42;19.75;;;15.25;;
23290;SDS011;11814;44.686;10.842;2023-04-24T02:21:08;21.75;;;16.00;;
23290;SDS011;11814;44.686;10.842;2023-04-24T02:23:34;23.27;;;16.15;;
23290;SDS011;11814;44.686;10.842;2023-04-24T02:26:00;21.15;;;15.70;;
23290;SDS011;11814;44.686;10.842;2023-04-24T02:28:26;20.40;;;16.02;;
23290;SDS011;11814;44.686;10.842;2023-04-24T02:30:52;21.35;;;17.05;;
23290;SDS011;11814;44.686;10.842;2023-04-24T02:33:17;25.20;;;16.90;;
23290;SDS011;11814;44.686;10.842;2023-04-24T02:35:43;21.35;;;16.52;;
23290;SDS011;11814;44.686;10.842;2023-04-24T02:38:09;21.63;;;17.35;;
23290;SDS011;11814;44.686;10.842;2023-04-24T02:40:34;22.75;;;17.17;;
23290;SDS011;11814;44.686;10.842;2023-04-24T02:43:00;19.80;;;15.85;;
23290;SDS011;11814;44.686;10.842;2023-04-24T02:45:26;24.42;;;17.58;;
23290;SDS011;11814;44.686;10.842;2023-04-24T02:47:51;21.55;;;17.33;;
23290;SDS011;11814;44.686;10.842;2023-04-24T02:50:17;22.80;;;17.33;;
23290;SDS011;11814;44.686;10.842;2023-04-24T02:52:43;26.02;;;17.58;;
23290;SDS011;11814;44.686;10.842;2023-04-24T02:55:09;19.80;;;16.52;;
23290;SDS011;11814;44.686;10.842;2023-04-24T02:57:34;23.85;;;16.55;;
23290;SDS011;11814;44.686;10.842;2023-04-24T03:00:00;22.90;;;17.25;;
23290;SDS011;11814;44.686;10.842;2023-04-24T03:02:26;23.42;;;18.75;;
23290;SDS011;11814;44.686;10.842;2023-04-24T03:04:52;24.58;;;18.08;;
23290;SDS011;11814;44.686;10.842;2023-04-24T03:07:18;28.20;;;20.42;;
23290;SDS011;11814;44.686;10.842;2023-04-24T03:09:45;26.20;;;20.73;;
23290;SDS011;11814;44.686;10.842;2023-04-24T03:12:12;25.50;;;20.50;;
23290;SDS011;11814;44.686;10.842;2023-04-24T03:14:38;22.75;;;19.90;;
23290;SDS011;11814;44.686;10.842;2023-04-24T03:17:03;26.70;;;19.92;;
23290;SDS011;11814;44.686;10.842;2023-04-24T03:19:29;28.58;;;22.08;;
23290;SDS011;11814;44.686;10.842;2023-04-24T03:21:55;27.42;;;21.58;;
23290;SDS011;11814;44.686;10.842;2023-04-24T03:24:21;29.77;;;22.65;;
23290;SDS011;11814;44.686;10.842;2023-04-24T03:26:47;27.08;;;22.88;;
23290;SDS011;11814;44.686;10.842;2023-04-24T03:29:13;29.45;;;21.73;;
23290;SDS011;11814;44.686;10.842;2023-04-24T03:31:38;29.45;;;23.08;;
23290;SDS011;11814;44.686;10.842;2023-04-24T03:34:04;30.65;;;23.38;;
23290;SDS011;11814;44.686;10.842;2023-04-24T03:36:30;28.73;;;22.85;;
23290;SDS011;11814;44.686;10.842;2023-04-24T03:38:56;32.80;;;25.08;;
23290;SDS011;11814;44.686;10.842;2023-04-24T03:41:22;34.40;;;23.30;;
23290;SDS011;11814;44.686;10.842;2023-04-24T03:43:48;29.23;;;23.85;;
23290;SDS011;11814;44.686;10.842;2023-04-24T03:46:13;32.17;;;23.55;;
23290;SDS011;11814;44.686;10.842;2023-04-24T03:48:40;29.20;;;23.33;;
23290;SDS011;11814;44.686;10.842;2023-04-24T03:51:05;32.47;;;24.58;;
23290;SDS011;11814;44.686;10.842;2023-04-24T03:53:31;29.10;;;24.02;;
23290;SDS011;11814;44.686;10.842;2023-04-24T03:55:57;31.38;;;25.38;;
23290;SDS011;11814;44.686;10.842;2023-04-24T03:58:22;35.22;;;26.67;;
23290;SDS011;11814;44.686;10.842;2023-04-24T04:00:48;31.88;;;24.95;;
23290;SDS011;11814;44.686;10.842;2023-04-24T04:03:14;29.75;;;23.65;;
23290;SDS011;11814;44.686;10.842;2023-04-24T04:05:40;31.58;;;25.52;;
23290;SDS011;11814;44.686;10.842;2023-04-24T04:08:06;34.80;;;26.50;;
23290;SDS011;11814;44.686;10.842;2023-04-24T04:10:31;30.02;;;24.13;;
23290;SDS011;11814;44.686;10.842;2023-04-24T04:12:57;32.47;;;25.65;;
23290;SDS011;11814;44.686;10.842;2023-04-24T04:15:23;33.45;;;26.75;;
23290;SDS011;11814;44.686;10.842;2023-04-24T04:17:48;32.45;;;25.15;;
23290;SDS011;11814;44.686;10.842;2023-04-24T04:20:14;35.88;;;27.45;;
23290;SDS011;11814;44.686;10.842;2023-04-24T04:22:40;36.33;;;27.58;;
23290;SDS011;11814;44.686;10.842;2023-04-24T04:25:06;38.58;;;28.55;;
23290;SDS011;11814;44.686;10.842;2023-04-24T04:27:33;35.55;;;28.60;;
23290;SDS011;11814;44.686;10.842;2023-04-24T04:30:03;41.42;;;29.25;;
23290;SDS011;11814;44.686;10.842;2023-04-24T04:32:32;39.08;;;29.60;;
23290;SDS011;11814;44.686;10.842;2023-04-24T04:34:59;37.97;;;29.70;;
23290;SDS011;11814;44.686;10.842;2023-04-24T04:37:34;34.08;;;27.10;;
23290;SDS011;11814;44.686;10.842;2023-04-24T04:40:00;37.88;;;26.95;;
23290;SDS011;11814;44.686;10.842;2023-04-24T04:42:31;32.80;;;26.80;;
23290;SDS011;11814;44.686;10.842;2023-04-24T04:44:57;35.33;;;26.52;;
23290;SDS011;11814;44.686;10.842;2023-04-24T04:47:23;31.83;;;26.52;;
23290;SDS011;11814;44.686;10.842;2023-04-24T04:49:49;36.25;;;27.67;;
23290;SDS011;11814;44.686;10.842;2023-04-24T04:52:18;31.58;;;26.15;;
23290;SDS011;11814;44.686;10.842;2023-04-24T04:54:44;32.33;;;25.98;;
23290;SDS011;11814;44.686;10.842;2023-04-24T04:57:11;35.08;;;25.20;;
23290;SDS011;11814;44.686;10.842;2023-04-24T04:59:37;29.75;;;25.30;;
23290;SDS011;11814;44.686;10.842;2023-04-24T05:02:02;31.83;;;25.52;;
23290;SDS011;11814;44.686;10.842;2023-04-24T05:04:28;32.80;;;24.95;;
23290;SDS011;11814;44.686;10.842;2023-04-24T05:06:55;31.40;;;23.70;;
23290;SDS011;11814;44.686;10.842;2023-04-24T05:09:21;33.80;;;26.90;;
23290;SDS011;11814;44.686;10.842;2023-04-24T05:11:47;37.22;;;27.38;;
23290;SDS011;11814;44.686;10.842;2023-04-24T05:14:12;32.00;;;24.67;;
23290;SDS011;11814;44.686;10.842;2023-04-24T05:16:38;28.73;;;23.00;;
23290;SDS011;11814;44.686;10.842;2023-04-24T05:19:05;32.15;;;22.92;;
23290;SDS011;11814;44.686;10.842;2023-04-24T05:21:31;29.17;;;22.92;;
23290;SDS011;11814;44.686;10.842;2023-04-24T05:23:56;27.40;;;23.33;;
23290;SDS011;11814;44.686;10.842;2023-04-24T05:26:22;29.88;;;24.23;;
23290;SDS011;11814;44.686;10.842;2023-04-24T05:28:48;30.75;;;24.90;;
23290;SDS011;11814;44.686;10.842;2023-04-24T05:31:14;31.25;;;24.55;;
23290;SDS011;11814;44.686;10.842;2023-04-24T05:33:40;28.48;;;24.15;;
23290;SDS011;11814;44.686;10.842;2023-04-24T05:36:06;30.63;;;22.77;;
23290;SDS011;11814;44.686;10.842;2023-04-24T05:38:32;27.50;;;24.17;;
23290;SDS011;11814;44.686;10.842;2023-04-24T05:40:58;31.83;;;23.95;;
23290;SDS011;11814;44.686;10.842;2023-04-24T05:43:23;27.95;;;23.70;;
23290;SDS011;11814;44.686;10.842;2023-04-24T05:45:50;30.90;;;23.33;;
23290;SDS011;11814;44.686;10.842;2023-04-24T05:48:15;30.20;;;22.50;;
23290;SDS011;11814;44.686;10.842;2023-04-24T05:50:41;26.67;;;22.98;;
23290;SDS011;11814;44.686;10.842;2023-04-24T05:53:07;30.60;;;24.50;;
23290;SDS011;11814;44.686;10.842;2023-04-24T05:55:33;30.70;;;22.77;;
23290;SDS011;11814;44.686;10.842;2023-04-24T05:57:58;30.98;;;24.48;;
23290;SDS011;11814;44.686;10.842;2023-04-24T06:00:25;30.40;;;23.88;;
23290;SDS011;11814;44.686;10.842;2023-04-24T06:02:50;28.52;;;22.40;;
23290;SDS011;11814;44.686;10.842;2023-04-24T06:05:17;26.67;;;22.50;;
23290;SDS011;11814;44.686;10.842;2023-04-24T06:07:43;28.83;;;22.77;;
23290;SDS011;11814;44.686;10.842;2023-04-24T06:10:09;26.17;;;20.88;;
23290;SDS011;11814;44.686;10.842;2023-04-24T06:12:35;24.92;;;20.35;;
23290;SDS011;11814;44.686;10.842;2023-04-24T06:15:01;28.25;;;23.70;;
23290;SDS011;11814;44.686;10.842;2023-04-24T06:17:27;31.35;;;25.33;;
23290;SDS011;11814;44.686;10.842;2023-04-24T06:19:53;32.33;;;25.13;;
23290;SDS011;11814;44.686;10.842;2023-04-24T06:22:19;35.17;;;26.23;;
23290;SDS011;11814;44.686;10.842;2023-04-24T06:24:45;28.90;;;23.42;;
23290;SDS011;11814;44.686;10.842;2023-04-24T06:27:10;29.70;;;21.30;;
23290;SDS011;11814;44.686;10.842;2023-04-24T06:29:36;26.88;;;19.98;;
23290;SDS011;11814;44.686;10.842;2023-04-24T06:32:02;26.20;;;19.75;;
23290;SDS011;11814;44.686;10.842;2023-04-24T06:34:27;23.30;;;18.42;;
23290;SDS011;11814;44.686;10.842;2023-04-24T06:36:54;25.13;;;19.33;;
23290;SDS011;11814;44.686;10.842;2023-04-24T06:39:20;24.67;;;19.23;;
23290;SDS011;11814;44.686;10.842;2023-04-24T06:41:46;27.67;;;19.73;;
23290;SDS011;11814;44.686;10.842;2023-04-24T06:44:11;23.45;;;18.85;;
23290;SDS011;11814;44.686;10.842;2023-04-24T06:46:39;27.63;;;20.42;;
23290;SDS011;11814;44.686;10.842;2023-04-24T06:49:05;23.92;;;17.48;;
23290;SDS011;11814;44.686;10.842;2023-04-24T06:51:31;24.10;;;15.90;;
23290;SDS011;11814;44.686;10.842;2023-04-24T06:53:58;21.23;;;17.55;;
23290;SDS011;11814;44.686;10.842;2023-04-24T06:56:24;28.05;;;20.17;;
23290;SDS011;11814;44.686;10.842;2023-04-24T06:58:51;24.48;;;18.45;;
23290;SDS011;11814;44.686;10.842;2023-04-24T07:01:17;23.05;;;18.98;;
23290;SDS011;11814;44.686;10.842;2023-04-24T07:03:43;22.63;;;18.77;;
23290;SDS011;11814;44.686;10.842;2023-04-24T07:06:09;22.30;;;17.88;;
23290;SDS011;11814;44.686;10.842;2023-04-24T07:08:36;17.92;;;15.25;;
23290;SDS011;11814;44.686;10.842;2023-04-24T07:11:02;19.92;;;15.15;;
23290;SDS011;11814;44.686;10.842;2023-04-24T07:13:28;19.98;;;13.60;;
23290;SDS011;11814;44.686;10.842;2023-04-24T07:15:53;16.27;;;12.27;;
23290;SDS011;11814;44.686;10.842;2023-04-24T07:18:21;14.18;;;11.55;;
23290;SDS011;11814;44.686;10.842;2023-04-24T07:20:47;13.60;;;10.93;;
23290;SDS011;11814;44.686;10.842;2023-04-24T07:23:15;12.02;;;9.85;;
23290;SDS011;11814;44.686;10.842;2023-04-24T07:25:41;16.23;;;9.18;;
23290;SDS011;11814;44.686;10.842;2023-04-24T07:28:07;17.92;;;10.48;;
23290;SDS011;11814;44.686;10.842;2023-04-24T07:30:32;13.70;;;10.52;;
23290;SDS011;11814;44.686;10.842;2023-04-24T07:32:58;15.30;;;11.30;;
23290;SDS011;11814;44.686;10.842;2023-04-24T07:35:25;11.80;;;10.18;;
23290;SDS011;11814;44.686;10.842;2023-04-24T07:37:54;16.65;;;10.90;;
23290;SDS011;11814;44.686;10.842;2023-04-24T07:40:21;12.82;;;10.02;;
23290;SDS011;11814;44.686;10.842;2023-04-24T07:42:47;15.52;;;10.95;;
23290;SDS011;11814;44.686;10.842;2023-04-24T07:45:15;12.85;;;9.68;;
23290;SDS011;11814;44.686;10.842;2023-04-24T07:47:41;13.55;;;10.68;;
23290;SDS011;11814;44.686;10.842;2023-04-24T07:50:09;12.13;;;10.80;;
23290;SDS011;11814;44.686;10.842;2023-04-24T07:52:35;15.95;;;11.35;;
23290;SDS011;11814;44.686;10.842;2023-04-24T07:55:01;16.10;;;10.13;;
23290;SDS011;11814;44.686;10.842;2023-04-24T07:57:27;14.23;;;11.32;;
23290;SDS011;11814;44.686;10.842;2023-04-24T07:59:53;16.90;;;10.55;;
23290;SDS011;11814;44.686;10.842;2023-04-24T08:02:19;12.10;;;9.77;;
23290;SDS011;11814;44.686;10.842;2023-04-24T08:04:51;11.30;;;8.98;;
23290;SDS011;11814;44.686;10.842;2023-04-24T08:07:19;16.75;;;9.60;;
23290;SDS011;11814;44.686;10.842;2023-04-24T08:09:45;17.38;;;10.38;;
23290;SDS011;11814;44.686;10.842;2023-04-24T08:12:11;12.95;;;9.65;;
23290;SDS011;11814;44.686;10.842;2023-04-24T08:14:37;15.30;;;10.50;;
23290;SDS011;11814;44.686;10.842;2023-04-24T08:17:02;16.63;;;10.25;;
23290;SDS011;11814;44.686;10.842;2023-04-24T08:19:28;15.07;;;10.63;;
23290;SDS011;11814;44.686;10.842;2023-04-24T08:21:54;13.23;;;9.82;;
23290;SDS011;11814;44.686;10.842;2023-04-24T08:24:20;13.07;;;8.80;;
23290;SDS011;11814;44.686;10.842;2023-04-24T08:26:46;11.38;;;8.82;;
23290;SDS011;11814;44.686;10.842;2023-04-24T08:29:15;11.23;;;6.57;;
23290;SDS011;11814;44.686;10.842;2023-04-24T08:31:41;8.27;;;6.47;;
23290;SDS011;11814;44.686;10.842;2023-04-24T08:34:06;9.50;;;6.38;;
23290;SDS011;11814;44.686;10.842;2023-04-24T08:36:32;10.93;;;6.20;;
23290;SDS011;11814;44.686;10.842;2023-04-24T08:38:58;8.45;;;6.95;;
23290;SDS011;11814;44.686;10.842;2023-04-24T08:41:24;7.63;;;6.00;;
23290;SDS011;11814;44.686;10.842;2023-04-24T08:43:51;9.90;;;6.68;;
23290;SDS011;11814;44.686;10.842;2023-04-24T08:46:18;7.70;;;6.13;;
23290;SDS011;11814;44.686;10.842;2023-04-24T08:48:45;11.80;;;7.05;;
23290;SDS011;11814;44.686;10.842;2023-04-24T08:51:10;8.57;;;6.20;;
23290;SDS011;11814;44.686;10.842;2023-04-24T08:53:37;12.23;;;6.82;;
23290;SDS011;11814;44.686;10.842;2023-04-24T08:56:03;9.65;;;7.00;;
23290;SDS011;11814;44.686;10.842;2023-04-24T08:58:29;8.52;;;5.63;;
23290;SDS011;11814;44.686;10.842;2023-04-24T09:00:56;7.68;;;5.60;;
23290;SDS011;11814;44.686;10.842;2023-04-24T09:03:24;7.95;;;5.80;;
23290;SDS011;11814;44.686;10.842;2023-04-24T09:05:51;9.70;;;5.72;;
23290;SDS011;11814;44.686;10.842;2023-04-24T09:08:19;11.18;;;5.90;;
23290;SDS011;11814;44.686;10.842;2023-04-24T09:10:47;8.00;;;6.18;;
23290;SDS011;11814;44.686;10.842;2023-04-24T09:13:13;9.07;;;6.00;;
23290;SDS011;11814;44.686;10.842;2023-04-24T09:15:39;10.07;;;6.93;;
23290;SDS011;11814;44.686;10.842;2023-04-24T09:18:06;8.32;;;7.40;;
23290;SDS011;11814;44.686;10.842;2023-04-24T09:20:32;11.32;;;6.85;;
23290;SDS011;11814;44.686;10.842;2023-04-24T09:23:01;8.27;;;6.78;;
23290;SDS011;11814;44.686;10.842;2023-04-24T09:25:33;9.50;;;6.20;;
23290;SDS011;11814;44.686;10.842;2023-04-24T09:28:03;8.32;;;5.82;;
23290;SDS011;11814;44.686;10.842;2023-04-24T09:30:31;7.43;;;5.50;;
23290;SDS011;11814;44.686;10.842;2023-04-24T09:33:10;7.05;;;5.40;;
23290;SDS011;11814;44.686;10.842;2023-04-24T09:35:40;11.77;;;5.82;;
23290;SDS011;11814;44.686;10.842;2023-04-24T09:38:07;11.77;;;5.63;;
23290;SDS011;11814;44.686;10.842;2023-04-24T09:40:34;8.65;;;5.35;;
23290;SDS011;11814;44.686;10.842;2023-04-24T09:43:00;8.70;;;5.25;;
23290;SDS011;11814;44.686;10.842;2023-04-24T09:45:37;9.50;;;5.60;;
23290;SDS011;11814;44.686;10.842;2023-04-24T09:48:04;7.72;;;5.50;;
23290;SDS011;11814;44.686;10.842;2023-04-24T09:50:33;8.55;;;5.68;;
23290;SDS011;11814;44.686;10.842;2023-04-24T09:53:03;8.82;;;5.50;;
23290;SDS011;11814;44.686;10.842;2023-04-24T09:55:30;7.65;;;4.85;;
23290;SDS011;11814;44.686;10.842;2023-04-24T09:58:00;7.78;;;5.47;;
23290;SDS011;11814;44.686;10.842;2023-04-24T10:00:27;10.50;;;5.55;;
23290;SDS011;11814;44.686;10.842;2023-04-24T10:02:58;8.25;;;5.32;;
23290;SDS011;11814;44.686;10.842;2023-04-24T10:05:34;14.95;;;5.22;;
23290;SDS011;11814;44.686;10.842;2023-04-24T10:08:08;5.40;;;4.30;;
23290;SDS011;11814;44.686;10.842;2023-04-24T10:10:38;7.05;;;4.68;;
23290;SDS011;11814;44.686;10.842;2023-04-24T10:13:06;10.55;;;5.35;;
23290;SDS011;11814;44.686;10.842;2023-04-24T10:15:34;9.60;;;5.15;;
23290;SDS011;11814;44.686;10.842;2023-04-24T10:18:00;6.28;;;3.97;;
23290;SDS011;11814;44.686;10.842;2023-04-24T10:20:27;7.55;;;3.80;;
23290;SDS011;11814;44.686;10.842;2023-04-24T10:22:55;6.90;;;3.78;;
23290;SDS011;11814;44.686;10.842;2023-04-24T10:25:23;5.93;;;4.45;;
23290;SDS011;11814;44.686;10.842;2023-04-24T10:27:51;7.82;;;3.92;;
23290;SDS011;11814;44.686;10.842;2023-04-24T10:30:20;7.30;;;3.90;;
23290;SDS011;11814;44.686;10.842;2023-04-24T10:32:46;8.63;;;4.78;;
23290;SDS011;11814;44.686;10.842;2023-04-24T10:35:12;8.65;;;4.95;;
23290;SDS011;11814;44.686;10.842;2023-04-24T10:37:46;6.70;;;4.43;;
23290;SDS011;11814;44.686;10.842;2023-04-24T10:40:18;7.95;;;4.63;;
23290;SDS011;11814;44.686;10.842;2023-04-24T10:42:51;6.15;;;4.38;;
23290;SDS011;11814;44.686;10.842;2023-04-24T10:45:21;8.40;;;4.47;;
23290;SDS011;11814;44.686;10.842;2023-04-24T10:50:24;7.80;;;4.50;;
23290;SDS011;11814;44.686;10.842;2023-04-24T10:52:51;7.35;;;5.43;;
23290;SDS011;11814;44.686;10.842;2023-04-24T10:56:21;6.35;;;5.47;;
23290;SDS011;11814;44.686;10.842;2023-04-24T11:01:23;8.35;;;4.75;;
23290;SDS011;11814;44.686;10.842;2023-04-24T11:03:54;7.07;;;4.32;;
23290;SDS011;11814;44.686;10.842;2023-04-24T11:06:30;5.03;;;4.15;;
23290;SDS011;11814;44.686;10.842;2023-04-24T11:09:05;5.22;;;4.13;;
23290;SDS011;11814;44.686;10.842;2023-04-24T11:11:33;7.75;;;4.25;;
23290;SDS011;11814;44.686;10.842;2023-04-24T11:14:01;7.30;;;4.75;;
23290;SDS011;11814;44.686;10.842;2023-04-24T11:26:56;6.20;;;4.50;;
23290;SDS011;11814;44.686;10.842;2023-04-24T11:29:37;9.32;;;5.43;;
23290;SDS011;11814;44.686;10.842;2023-04-24T11:37:37;7.00;;;3.58;;
23290;SDS011;11814;44.686;10.842;2023-04-24T11:40:11;7.00;;;4.38;;
23290;SDS011;11814;44.686;10.842;2023-04-24T11:42:40;5.90;;;4.20;;
23290;SDS011;11814;44.686;10.842;2023-04-24T11:45:14;8.73;;;4.50;;
23290;SDS011;11814;44.686;10.842;2023-04-24T11:47:41;6.10;;;5.07;;
23290;SDS011;11814;44.686;10.842;2023-04-24T11:50:09;7.07;;;4.50;;
23290;SDS011;11814;44.686;10.842;2023-04-24T11:52:45;5.00;;;3.67;;
23290;SDS011;11814;44.686;10.842;2023-04-24T11:57:45;7.25;;;4.47;;
23290;SDS011;11814;44.686;10.842;2023-04-24T12:00:16;4.53;;;3.75;;
23290;SDS011;11814;44.686;10.842;2023-04-24T12:02:48;6.40;;;3.72;;
23290;SDS011;11814;44.686;10.842;2023-04-24T12:05:27;6.72;;;3.25;;
23290;SDS011;11814;44.686;10.842;2023-04-24T12:07:56;3.97;;;3.30;;
23290;SDS011;11814;44.686;10.842;2023-04-24T12:10:25;5.28;;;3.40;;
23290;SDS011;11814;44.686;10.842;2023-04-24T12:12:53;6.05;;;3.25;;
23290;SDS011;11814;44.686;10.842;2023-04-24T12:15:20;5.13;;;2.63;;
23290;SDS011;11814;44.686;10.842;2023-04-24T12:17:47;3.35;;;2.10;;
23290;SDS011;11814;44.686;10.842;2023-04-24T12:20:15;4.35;;;2.00;;
23290;SDS011;11814;44.686;10.842;2023-04-24T12:22:49;3.50;;;2.38;;
23290;SDS011;11814;44.686;10.842;2023-04-24T12:25:19;2.72;;;2.00;;
23290;SDS011;11814;44.686;10.842;2023-04-24T12:27:46;4.43;;;2.20;;
23290;SDS011;11814;44.686;10.842;2023-04-24T12:30:39;4.72;;;2.50;;
23290;SDS011;11814;44.686;10.842;2023-04-24T12:33:06;6.25;;;1.80;;
23290;SDS011;11814;44.686;10.842;2023-04-24T12:35:32;4.90;;;1.83;;
23290;SDS011;11814;44.686;10.842;2023-04-24T12:40:34;5.97;;;1.90;;
23290;SDS011;11814;44.686;10.842;2023-04-24T12:43:00;4.18;;;2.20;;
23290;SDS011;11814;44.686;10.842;2023-04-24T12:45:26;4.70;;;1.80;;
23290;SDS011;11814;44.686;10.842;2023-04-24T12:47:53;1.67;;;1.50;;
23290;SDS011;11814;44.686;10.842;2023-04-24T12:50:18;4.43;;;1.60;;
23290;SDS011;11814;44.686;10.842;2023-04-24T12:52:44;5.55;;;2.03;;
23290;SDS011;11814;44.686;10.842;2023-04-24T12:55:10;4.53;;;2.15;;
23290;SDS011;11814;44.686;10.842;2023-04-24T12:57:38;3.63;;;2.20;;
23290;SDS011;11814;44.686;10.842;2023-04-24T13:00:05;4.93;;;2.53;;
23290;SDS011;11814;44.686;10.842;2023-04-24T13:02:32;4.18;;;2.60;;
23290;SDS011;11814;44.686;10.842;2023-04-24T13:04:59;3.05;;;2.67;;
23290;SDS011;11814;44.686;10.842;2023-04-24T13:07:25;5.38;;;3.20;;
23290;SDS011;11814;44.686;10.842;2023-04-24T13:09:52;3.38;;;2.60;;
23290;SDS011;11814;44.686;10.842;2023-04-24T13:12:19;4.05;;;2.90;;
23290;SDS011;11814;44.686;10.842;2023-04-24T13:14:45;5.18;;;3.22;;
23290;SDS011;11814;44.686;10.842;2023-04-24T13:17:11;4.57;;;2.00;;
23290;SDS011;11814;44.686;10.842;2023-04-24T13:19:41;3.90;;;2.13;;
23290;SDS011;11814;44.686;10.842;2023-04-24T13:22:11;2.88;;;2.30;;
23290;SDS011;11814;44.686;10.842;2023-04-24T13:24:37;5.72;;;2.80;;
23290;SDS011;11814;44.686;10.842;2023-04-24T13:27:05;5.85;;;2.55;;
23290;SDS011;11814;44.686;10.842;2023-04-24T13:29:31;5.50;;;2.63;;
23290;SDS011;11814;44.686;10.842;2023-04-24T13:31:57;4.35;;;2.38;;
23290;SDS011;11814;44.686;10.842;2023-04-24T13:34:23;2.97;;;2.30;;
23290;SDS011;11814;44.686;10.842;2023-04-24T13:36:53;4.68;;;2.22;;
23290;SDS011;11814;44.686;10.842;2023-04-24T13:39:20;3.13;;;2.38;;
23290;SDS011;11814;44.686;10.842;2023-04-24T13:41:47;6.32;;;2.55;;
23290;SDS011;11814;44.686;10.842;2023-04-24T13:44:13;3.45;;;2.47;;
23290;SDS011;11814;44.686;10.842;2023-04-24T13:46:40;2.28;;;2.00;;
23290;SDS011;11814;44.686;10.842;2023-04-24T13:49:08;4.57;;;2.70;;
23290;SDS011;11814;44.686;10.842;2023-04-24T13:51:34;3.58;;;2.85;;
23290;SDS011;11814;44.686;10.842;2023-04-24T13:54:00;2.50;;;2.30;;
23290;SDS011;11814;44.686;10.842;2023-04-24T13:56:26;3.30;;;2.47;;
23290;SDS011;11814;44.686;10.842;2023-04-24T13:58:51;6.00;;;2.30;;
23290;SDS011;11814;44.686;10.842;2023-04-24T14:01:19;5.25;;;2.40;;
23290;SDS011;11814;44.686;10.842;2023-04-24T14:03:45;6.45;;;2.90;;
23290;SDS011;11814;44.686;10.842;2023-04-24T14:06:11;7.47;;;3.20;;
23290;SDS011;11814;44.686;10.842;2023-04-24T14:08:37;4.75;;;2.65;;
23290;SDS011;11814;44.686;10.842;2023-04-24T14:11:02;4.03;;;2.67;;
23290;SDS011;11814;44.686;10.842;2023-04-24T14:13:29;3.80;;;2.33;;
23290;SDS011;11814;44.686;10.842;2023-04-24T14:15:55;3.67;;;2.60;;
23290;SDS011;11814;44.686;10.842;2023-04-24T14:18:21;5.10;;;2.65;;
23290;SDS011;11814;44.686;10.842;2023-04-24T14:20:46;7.35;;;2.58;;
23290;SDS011;11814;44.686;10.842;2023-04-24T14:23:12;3.35;;;3.05;;
23290;SDS011;11814;44.686;10.842;2023-04-24T14:25:38;4.20;;;3.22;;
23290;SDS011;11814;44.686;10.842;2023-04-24T14:28:03;5.35;;;2.88;;
23290;SDS011;11814;44.686;10.842;2023-04-24T14:30:30;5.30;;;3.00;;
23290;SDS011;11814;44.686;10.842;2023-04-24T14:32:56;5.80;;;3.22;;
23290;SDS011;11814;44.686;10.842;2023-04-24T14:35:22;5.35;;;3.15;;
23290;SDS011;11814;44.686;10.842;2023-04-24T14:37:48;4.07;;;3.00;;
23290;SDS011;11814;44.686;10.842;2023-04-24T14:40:14;5.43;;;3.15;;
23290;SDS011;11814;44.686;10.842;2023-04-24T14:42:40;6.95;;;3.75;;
23290;SDS011;11814;44.686;10.842;2023-04-24T14:45:05;5.22;;;3.45;;
23290;SDS011;11814;44.686;10.842;2023-04-24T14:47:32;3.70;;;3.30;;